createdAt,value
2022-12-25T00:00:21.084Z,3.83
2022-12-25T00:03:23.137Z,4.30
2022-12-25T00:06:24.802Z,4.70
2022-12-25T00:09:26.364Z,4.28
2022-12-25T00:12:28.036Z,4.30
2022-12-25T00:15:29.618Z,4.68
2022-12-25T00:18:31.226Z,4.13
2022-12-25T00:21:33.432Z,4.72
2022-12-25T00:24:35.040Z,4.60
2022-12-25T00:27:37.926Z,4.38
2022-12-25T00:30:43.919Z,4.35
2022-12-25T00:33:46.527Z,5.53
2022-12-25T00:36:50.862Z,5.23
2022-12-25T00:39:52.455Z,4.40
2022-12-25T00:42:54.086Z,5.13
2022-12-25T00:46:03.919Z,4.68
2022-12-25T00:49:05.984Z,4.60
2022-12-25T00:52:07.638Z,5.03
2022-12-25T00:55:09.341Z,5.05
2022-12-25T00:58:10.983Z,4.63
2022-12-25T01:01:12.738Z,4.47
2022-12-25T01:04:14.455Z,4.45
2022-12-25T01:07:18.646Z,4.20
2022-12-25T01:10:23.050Z,4.78
2022-12-25T01:13:24.660Z,4.67
2022-12-25T01:16:30.651Z,4.38
2022-12-25T01:19:32.265Z,4.57
2022-12-25T01:22:33.864Z,4.53
2022-12-25T01:25:35.496Z,5.50
2022-12-25T01:28:37.292Z,5.35
2022-12-25T01:31:38.952Z,5.00
2022-12-25T01:34:40.627Z,5.18
2022-12-25T01:37:42.164Z,4.95
2022-12-25T01:40:43.799Z,5.00
2022-12-25T01:43:57.631Z,4.70
2022-12-25T01:46:59.259Z,4.05
2022-12-25T01:50:00.850Z,4.83
2022-12-25T01:53:02.462Z,4.82
2022-12-25T01:56:05.919Z,5.10
2022-12-25T01:59:07.511Z,4.60
2022-12-25T02:02:12.456Z,5.50
2022-12-25T02:05:19.185Z,4.93
2022-12-25T02:08:21.137Z,4.43
2022-12-25T02:11:41.181Z,4.93
2022-12-25T02:14:42.780Z,5.00
2022-12-25T02:18:03.303Z,5.55
2022-12-25T02:21:16.772Z,4.82
2022-12-25T02:24:39.649Z,4.95
2022-12-25T02:28:04.478Z,5.10
2022-12-25T02:31:12.535Z,5.07
2022-12-25T02:34:35.113Z,4.85
2022-12-25T02:37:44.049Z,4.57
2022-12-25T02:40:51.481Z,5.22
2022-12-25T02:44:11.512Z,4.60
2022-12-25T02:47:31.512Z,5.10
2022-12-25T02:50:51.752Z,5.32
2022-12-25T02:54:13.427Z,5.30
2022-12-25T02:57:51.409Z,5.00
2022-12-25T03:01:15.364Z,5.13
2022-12-25T03:04:37.147Z,5.45
2022-12-25T03:07:39.200Z,5.17
2022-12-25T03:11:00.168Z,5.70
2022-12-25T03:14:24.821Z,5.05
2022-12-25T03:17:26.449Z,5.50
2022-12-25T03:20:47.552Z,6.03
2022-12-25T03:24:17.308Z,5.75
2022-12-25T03:27:18.914Z,5.07
2022-12-25T03:30:39.057Z,5.28
2022-12-25T03:34:22.232Z,5.77
2022-12-25T03:37:41.398Z,5.82
2022-12-25T03:41:07.894Z,5.32
2022-12-25T03:44:34.134Z,5.22
2022-12-25T03:48:03.224Z,5.57
2022-12-25T03:51:26.866Z,5.93
2022-12-25T03:54:46.889Z,4.47
2022-12-25T03:58:06.962Z,4.78
2022-12-25T04:01:27.343Z,5.50
2022-12-25T04:04:47.543Z,4.90
2022-12-25T04:08:07.420Z,5.10
2022-12-25T04:11:27.705Z,5.93
2022-12-25T04:14:47.611Z,5.43
2022-12-25T04:18:10.895Z,5.28
2022-12-25T04:21:33.916Z,5.43
2022-12-25T04:24:54.184Z,5.20
2022-12-25T04:28:19.627Z,5.70
2022-12-25T04:31:39.899Z,4.93
2022-12-25T04:35:00.054Z,5.65
2022-12-25T04:38:01.751Z,5.78
2022-12-25T04:41:03.472Z,5.82
2022-12-25T04:44:05.107Z,5.90
2022-12-25T04:47:11.096Z,5.93
2022-12-25T04:50:17.811Z,5.07
2022-12-25T04:53:19.626Z,5.87
2022-12-25T04:56:21.829Z,6.10
2022-12-25T04:59:23.446Z,5.90
2022-12-25T05:02:25.402Z,5.53
2022-12-25T05:05:27.160Z,5.13
2022-12-25T05:08:30.091Z,5.07
2022-12-25T05:11:31.809Z,5.20
2022-12-25T05:14:33.392Z,4.75
2022-12-25T05:17:35.055Z,5.45
2022-12-25T05:20:40.257Z,4.78
2022-12-25T05:23:48.515Z,4.28
2022-12-25T05:26:50.381Z,3.70
2022-12-25T05:29:51.990Z,4.28
2022-12-25T05:32:53.576Z,3.80
2022-12-25T05:35:59.108Z,3.45
2022-12-25T05:39:00.698Z,3.58
2022-12-25T05:42:02.409Z,3.88
2022-12-25T05:45:04.313Z,3.50
2022-12-25T05:48:06.140Z,3.25
2022-12-25T05:51:11.829Z,3.75
2022-12-25T05:54:13.452Z,3.65
2022-12-25T05:57:15.006Z,3.20
2022-12-25T06:00:16.875Z,3.22
2022-12-25T06:03:18.576Z,3.67
2022-12-25T06:06:23.630Z,3.90
2022-12-25T06:09:25.274Z,4.37
2022-12-25T06:12:26.954Z,4.57
2022-12-25T06:15:28.579Z,4.03
2022-12-25T06:18:30.192Z,4.35
2022-12-25T06:21:31.862Z,4.78
2022-12-25T06:24:33.557Z,4.70
2022-12-25T06:27:35.209Z,4.25
2022-12-25T06:30:36.805Z,4.28
2022-12-25T06:33:38.395Z,4.25
2022-12-25T06:36:40.051Z,5.10
2022-12-25T06:39:41.663Z,4.63
2022-12-25T06:42:43.228Z,4.97
2022-12-25T06:45:44.856Z,4.65
2022-12-25T06:48:50.062Z,4.63
2022-12-25T06:51:55.934Z,5.15
2022-12-25T06:54:57.539Z,5.13
2022-12-25T06:57:59.133Z,5.03
2022-12-25T07:01:00.715Z,4.90
2022-12-25T07:04:04.331Z,4.97
2022-12-25T07:07:08.952Z,4.93
2022-12-25T07:10:11.287Z,5.95
2022-12-25T07:13:12.856Z,5.75
2022-12-25T07:16:14.749Z,5.80
2022-12-25T07:19:16.387Z,5.53
2022-12-25T07:22:21.371Z,5.80
2022-12-25T07:25:22.946Z,6.50
2022-12-25T07:28:24.915Z,6.60
2022-12-25T07:31:26.580Z,6.20
2022-12-25T07:34:28.164Z,6.00
2022-12-25T07:37:29.757Z,6.28
2022-12-25T07:40:31.309Z,5.67
2022-12-25T07:43:32.924Z,5.80
2022-12-25T07:46:34.504Z,6.07
2022-12-25T07:49:36.165Z,5.70
2022-12-25T07:52:43.641Z,6.05
2022-12-25T07:55:45.668Z,5.17
2022-12-25T07:58:47.361Z,5.90
2022-12-25T08:01:50.471Z,5.95
2022-12-25T08:04:52.400Z,4.90
2022-12-25T08:07:57.655Z,4.90
2022-12-25T08:11:00.983Z,4.97
2022-12-25T08:14:07.793Z,4.70
2022-12-25T08:17:09.452Z,4.20
2022-12-25T08:20:11.371Z,3.80
2022-12-25T08:23:16.746Z,4.43
2022-12-25T08:26:20.137Z,4.50
2022-12-25T08:29:21.825Z,4.43
2022-12-25T08:32:24.608Z,4.38
2022-12-25T08:35:26.350Z,4.70
2022-12-25T08:38:31.699Z,5.45
2022-12-25T08:41:36.242Z,6.03
2022-12-25T08:44:37.887Z,7.60
2022-12-25T08:47:39.517Z,7.07
2022-12-25T08:50:50.942Z,7.43
2022-12-25T08:53:53.086Z,7.00
2022-12-25T08:57:02.087Z,6.90
2022-12-25T09:00:04.544Z,6.43
2022-12-25T09:03:06.304Z,6.25
2022-12-25T09:06:09.514Z,6.00
2022-12-25T09:09:11.102Z,7.00
2022-12-25T09:12:12.667Z,6.53
2022-12-25T09:15:14.228Z,5.75
2022-12-25T09:18:15.858Z,5.80
2022-12-25T09:21:17.813Z,5.63
2022-12-25T09:24:20.645Z,7.43
2022-12-25T09:27:22.222Z,8.43
2022-12-25T09:30:23.869Z,8.25
2022-12-25T09:33:25.620Z,8.00
2022-12-25T09:36:27.259Z,7.03
2022-12-25T09:39:32.452Z,7.15
2022-12-25T09:42:36.832Z,7.00
2022-12-25T09:45:38.433Z,6.57
2022-12-25T09:48:40.522Z,6.65
2022-12-25T09:51:42.084Z,6.45
2022-12-25T09:55:05.449Z,7.38
2022-12-25T09:58:13.460Z,7.47
2022-12-25T10:01:23.890Z,7.07
2022-12-25T10:04:40.538Z,7.65
2022-12-25T10:07:45.451Z,8.93
2022-12-25T10:10:56.138Z,9.30
2022-12-25T10:14:29.839Z,9.50
2022-12-25T10:18:02.384Z,9.40
2022-12-25T10:21:09.375Z,8.68
2022-12-25T10:24:56.622Z,9.13
2022-12-25T10:28:01.357Z,9.07
2022-12-25T10:31:14.544Z,9.43
2022-12-25T10:34:16.407Z,9.93
2022-12-25T10:37:18.070Z,14.60
2022-12-25T10:40:38.775Z,15.23
2022-12-25T10:43:43.966Z,15.82
2022-12-25T10:46:49.141Z,13.53
2022-12-25T10:49:50.785Z,13.00
2022-12-25T10:53:04.812Z,13.13
2022-12-25T10:56:07.798Z,13.20
2022-12-25T10:59:09.715Z,13.45
2022-12-25T11:02:20.432Z,10.80
2022-12-25T11:05:33.001Z,8.93
2022-12-25T11:08:34.906Z,10.85
2022-12-25T11:11:38.164Z,10.90
2022-12-25T11:14:39.756Z,13.27
2022-12-25T11:17:48.527Z,15.30
2022-12-25T11:20:54.714Z,15.80
2022-12-25T11:24:01.671Z,15.48
2022-12-25T11:27:06.152Z,15.20
2022-12-25T11:30:15.864Z,14.77
2022-12-25T11:33:17.737Z,14.20
2022-12-25T11:36:39.066Z,10.80
2022-12-25T11:39:40.698Z,11.38
2022-12-25T11:42:44.867Z,12.75
2022-12-25T11:45:49.115Z,13.27
2022-12-25T11:48:56.218Z,12.27
2022-12-25T11:51:57.853Z,12.35
2022-12-25T11:55:05.623Z,10.57
2022-12-25T11:58:16.446Z,8.23
2022-12-25T12:01:39.668Z,7.55
2022-12-25T12:04:43.448Z,7.33
2022-12-25T12:07:52.441Z,8.30
2022-12-25T12:11:18.830Z,8.38
2022-12-25T12:14:48.089Z,8.70
2022-12-25T12:17:49.705Z,9.57
2022-12-25T12:21:27.526Z,10.60
2022-12-25T12:24:43.897Z,7.53
2022-12-25T12:27:45.497Z,6.03
2022-12-25T12:30:56.789Z,5.00
2022-12-25T12:33:58.458Z,3.75
2022-12-25T12:37:02.550Z,4.50
2022-12-25T12:40:04.927Z,3.53
2022-12-25T12:43:07.482Z,3.80
2022-12-25T12:46:28.052Z,3.80
2022-12-25T12:49:33.712Z,4.07
2022-12-25T12:52:37.599Z,3.77
2022-12-25T12:55:39.196Z,3.47
2022-12-25T12:58:45.429Z,3.60
2022-12-25T13:02:02.278Z,3.30
2022-12-25T13:05:04.476Z,4.53
2022-12-25T13:08:35.655Z,3.33
2022-12-25T13:11:40.241Z,3.63
2022-12-25T13:14:45.912Z,3.95
2022-12-25T13:17:48.685Z,3.42
2022-12-25T13:20:58.182Z,3.83
2022-12-25T13:24:04.100Z,3.90
2022-12-25T13:27:27.306Z,3.97
2022-12-25T13:30:28.903Z,3.97
2022-12-25T13:33:30.501Z,3.85
2022-12-25T13:36:40.224Z,3.70
2022-12-25T13:39:49.169Z,4.00
2022-12-25T13:43:02.089Z,4.40
2022-12-25T13:46:03.819Z,4.05
2022-12-25T13:49:13.408Z,3.40
2022-12-25T13:52:21.225Z,4.30
2022-12-25T13:55:27.348Z,3.50
2022-12-25T13:58:34.132Z,3.45
2022-12-25T14:01:35.796Z,3.08
2022-12-25T14:04:43.927Z,2.80
2022-12-25T14:07:51.076Z,3.00
2022-12-25T14:10:52.871Z,2.70
2022-12-25T14:13:56.932Z,3.45
2022-12-25T14:16:58.593Z,3.78
2022-12-25T14:20:07.611Z,3.42
2022-12-25T14:23:14.699Z,4.18
2022-12-25T14:26:20.321Z,4.17
2022-12-25T14:29:28.059Z,4.32
2022-12-25T14:32:30.749Z,4.85
2022-12-25T14:35:32.357Z,4.80
2022-12-25T14:38:36.742Z,4.60
2022-12-25T14:41:39.363Z,4.43
2022-12-25T14:44:41.047Z,4.47
2022-12-25T14:47:55.639Z,4.43
2022-12-25T14:51:15.109Z,4.63
2022-12-25T14:54:19.788Z,4.88
2022-12-25T14:57:47.337Z,4.87
2022-12-25T15:00:59.516Z,5.47
2022-12-25T15:04:08.441Z,6.13
2022-12-25T15:07:32.470Z,5.60
2022-12-25T15:14:00.411Z,6.67
2022-12-25T15:17:02.226Z,6.13
2022-12-25T15:20:04.302Z,5.95
2022-12-25T15:23:21.543Z,6.55
2022-12-25T15:26:23.529Z,7.45
2022-12-25T15:29:52.267Z,6.63
2022-12-25T15:32:46.914Z,6.70
2022-12-25T15:35:48.930Z,7.50
2022-12-25T15:38:50.713Z,7.45
2022-12-25T15:42:10.764Z,7.28
2022-12-25T15:45:24.374Z,7.13
2022-12-25T15:48:26.000Z,7.20
2022-12-25T15:51:27.708Z,7.80
2022-12-25T15:54:30.313Z,8.88
2022-12-25T15:57:33.284Z,8.20
2022-12-25T16:00:34.980Z,7.43
2022-12-25T16:03:36.856Z,8.15
2022-12-25T16:06:38.577Z,8.73
2022-12-25T16:09:40.165Z,8.35
2022-12-25T16:12:41.817Z,8.82
2022-12-25T16:15:45.080Z,9.83
2022-12-25T16:18:47.761Z,9.77
2022-12-25T16:21:50.140Z,9.65
2022-12-25T16:24:52.059Z,9.60
2022-12-25T16:27:53.681Z,9.80
2022-12-25T16:30:55.277Z,9.27
2022-12-25T16:33:57.004Z,9.65
2022-12-25T16:36:58.573Z,9.25
2022-12-25T16:40:00.212Z,8.93
2022-12-25T16:43:01.866Z,8.77
2022-12-25T16:46:14.370Z,8.53
2022-12-25T16:49:15.960Z,8.40
2022-12-25T16:52:17.540Z,8.82
2022-12-25T16:55:19.090Z,8.75
2022-12-25T16:58:20.642Z,9.15
2022-12-25T17:01:22.979Z,8.47
2022-12-25T17:04:25.333Z,8.77
2022-12-25T17:07:27.282Z,8.65
2022-12-25T17:10:28.947Z,8.85
2022-12-25T17:13:30.540Z,8.18
2022-12-25T17:16:33.986Z,8.77
2022-12-25T17:19:35.637Z,8.52
2022-12-25T17:22:37.236Z,8.20
2022-12-25T17:25:38.849Z,8.45
2022-12-25T17:28:40.455Z,8.23
2022-12-25T17:31:44.823Z,7.13
2022-12-25T17:34:46.945Z,7.13
2022-12-25T17:37:48.571Z,6.97
2022-12-25T17:41:00.125Z,6.88
2022-12-25T17:44:01.776Z,7.45
2022-12-25T17:47:06.999Z,7.30
2022-12-25T17:50:08.807Z,7.85
2022-12-25T17:53:10.737Z,7.63
2022-12-25T17:56:12.488Z,7.60
2022-12-25T17:59:20.946Z,7.47
2022-12-25T18:02:22.670Z,7.87
2022-12-25T18:05:24.394Z,7.75
2022-12-25T18:08:26.081Z,8.80
2022-12-25T18:11:29.315Z,8.23
2022-12-25T18:14:31.027Z,8.07
2022-12-25T18:17:35.973Z,7.95
2022-12-25T18:20:40.195Z,8.05
2022-12-25T18:23:42.163Z,7.95
2022-12-25T18:26:43.938Z,8.40
2022-12-25T18:29:45.620Z,7.57
2022-12-25T18:32:47.167Z,7.78
2022-12-25T18:35:48.793Z,8.85
2022-12-25T18:38:50.680Z,7.80
2022-12-25T18:42:10.683Z,8.87
2022-12-25T18:45:15.121Z,8.73
2022-12-25T18:48:20.308Z,9.93
2022-12-25T18:51:22.089Z,9.27
2022-12-25T18:54:23.680Z,10.15
2022-12-25T18:57:25.284Z,9.40
2022-12-25T19:00:28.142Z,9.00
2022-12-25T19:03:33.464Z,9.25
2022-12-25T19:06:35.135Z,8.88
2022-12-25T19:09:36.841Z,9.33
2022-12-25T19:12:38.471Z,9.73
2022-12-25T19:15:43.539Z,10.18
2022-12-25T19:18:49.340Z,9.98
2022-12-25T19:21:52.296Z,11.20
2022-12-25T19:24:53.853Z,9.53
2022-12-25T19:27:55.449Z,9.70
2022-12-25T19:30:59.400Z,9.65
2022-12-25T19:34:01.000Z,10.48
2022-12-25T19:37:03.894Z,9.80
2022-12-25T19:40:05.947Z,9.30
2022-12-25T19:43:07.611Z,9.13
2022-12-25T19:46:15.436Z,8.98
2022-12-25T19:49:17.269Z,8.90
2022-12-25T19:52:18.913Z,8.88
2022-12-25T19:55:22.005Z,8.30
2022-12-25T19:58:23.652Z,8.60
2022-12-25T20:01:26.507Z,8.80
2022-12-25T20:04:28.177Z,9.05
2022-12-25T20:07:29.814Z,8.73
2022-12-25T20:10:31.395Z,8.40
2022-12-25T20:13:32.993Z,8.25
2022-12-25T20:16:37.265Z,8.32
2022-12-25T20:19:38.911Z,7.65
2022-12-25T20:22:40.504Z,8.85
2022-12-25T20:25:42.261Z,8.77
2022-12-25T20:28:44.023Z,8.55
2022-12-25T20:31:45.833Z,8.82
2022-12-25T20:34:47.489Z,8.05
2022-12-25T20:37:49.169Z,7.87
2022-12-25T20:41:25.861Z,8.20
2022-12-25T20:44:20.850Z,6.97
2022-12-25T20:47:22.470Z,7.82
2022-12-25T20:50:27.274Z,10.38
2022-12-25T20:53:28.852Z,9.13
2022-12-25T20:56:30.605Z,9.82
2022-12-25T20:59:37.471Z,12.18
2022-12-25T21:02:39.832Z,12.60
2022-12-25T21:05:49.902Z,11.70
2022-12-25T21:08:51.751Z,10.97
2022-12-25T21:11:53.362Z,8.98
2022-12-25T21:14:55.091Z,8.40
2022-12-25T21:17:56.796Z,8.60
2022-12-25T21:20:58.747Z,7.50
2022-12-25T21:24:07.098Z,8.32
2022-12-25T21:27:08.737Z,8.32
2022-12-25T21:30:14.851Z,7.57
2022-12-25T21:33:35.658Z,8.82
2022-12-25T21:36:37.258Z,8.27
2022-12-25T21:39:38.980Z,8.15
2022-12-25T21:42:40.600Z,9.48
2022-12-25T21:45:42.304Z,9.20
2022-12-25T21:48:44.076Z,8.57
2022-12-25T21:52:07.381Z,10.15
2022-12-25T21:55:09.063Z,9.50
2022-12-25T21:58:10.754Z,8.05
2022-12-25T22:01:16.552Z,8.65
2022-12-25T22:04:19.937Z,7.60
2022-12-25T22:07:21.552Z,7.78
2022-12-25T22:10:23.469Z,8.40
2022-12-25T22:13:45.365Z,8.23
2022-12-25T22:17:05.886Z,8.90
2022-12-25T22:20:09.403Z,8.73
2022-12-25T22:23:11.021Z,9.60
2022-12-25T22:26:18.794Z,9.23
2022-12-25T22:29:22.600Z,8.20
2022-12-25T22:32:24.206Z,9.20
2022-12-25T22:35:25.925Z,9.53
2022-12-25T22:38:27.849Z,9.55
2022-12-25T22:41:33.549Z,9.05
2022-12-25T22:44:35.995Z,9.43
2022-12-25T22:47:37.579Z,9.13
2022-12-25T22:50:39.184Z,9.45
2022-12-25T22:53:40.786Z,9.60
2022-12-25T22:56:43.385Z,10.30
2022-12-25T22:59:45.219Z,10.15
2022-12-25T23:02:47.181Z,10.13
2022-12-25T23:05:56.282Z,9.75
2022-12-25T23:08:58.105Z,9.88
2022-12-25T23:11:59.956Z,11.18
2022-12-25T23:15:01.582Z,10.07
2022-12-25T23:18:21.891Z,11.33
2022-12-25T23:21:43.831Z,10.40
2022-12-25T23:25:04.098Z,10.73
2022-12-25T23:28:05.825Z,10.48
2022-12-25T23:31:07.511Z,10.43
2022-12-25T23:34:09.335Z,10.67
2022-12-25T23:37:11.373Z,10.38
2022-12-25T23:40:13.039Z,11.15
2022-12-25T23:43:14.613Z,11.43
2022-12-25T23:46:16.301Z,11.20
2022-12-25T23:49:17.981Z,11.57
2022-12-25T23:52:19.616Z,12.00
2022-12-25T23:55:21.216Z,11.98
2022-12-25T23:58:23.061Z,13.07
